<?xml version='1.0' encoding='UTF-8'?><gpx version="1.1" creator="JPX - https://github.com/jenetics/jpx" xmlns="http://www.topografix.com/GPX/1/1"><trk><trkseg><trkpt lat="41.89357444623778" lon="2.736238482817141"><ele>121.99999999999999</ele><time>2026-03-23T16:37:06.006Z</time></trkpt><trkpt lat="41.89355108356499" lon="2.7363265736229354"><ele>122.0</ele><time>2026-03-23T16:37:11.006Z</time></trkpt><trkpt lat="41.89351982684534" lon="2.736406329855815"><ele>122.0</ele><time>2026-03-23T16:37:15.006Z</time></trkpt><trkpt lat="41.89350049675018" lon="2.7365076250085636"><ele>122.0</ele><time>2026-03-23T16:37:19.006Z</time></trkpt><trkpt lat="41.89348203469484" lon="2.7366129916264663"><ele>121.99999999999999</ele><time>2026-03-23T16:37:22.006Z</time></trkpt><trkpt lat="41.893447603303265" lon="2.73672433257545"><ele>122.0</ele><time>2026-03-23T16:37:25.006Z</time></trkpt><trkpt lat="41.89342449179091" lon="2.7368387591090846"><ele>121.49999999999999</ele><time>2026-03-23T16:37:28.006Z</time></trkpt><trkpt lat="41.89339691502124" lon="2.736949674712943"><ele>121.0</ele><time>2026-03-23T16:37:31.006Z</time></trkpt><trkpt lat="41.893377147160656" lon="2.7370455427418974"><ele>120.5</ele><time>2026-03-23T16:37:34.006Z</time></trkpt><trkpt lat="41.893332050403096" lon="2.737106077845716"><ele>120.0</ele><time>2026-03-23T16:37:36.006Z</time></trkpt><trkpt lat="41.89325548668215" lon="2.7371433850738773"><ele>119.49999999999999</ele><time>2026-03-23T16:37:39.006Z</time></trkpt><trkpt lat="41.8931864644133" lon="2.737096605820556"><ele>119.0</ele><time>2026-03-23T16:37:42.006Z</time></trkpt><trkpt lat="41.89312539700304" lon="2.737041554843273"><ele>118.99999999999999</ele><time>2026-03-23T16:37:45.006Z</time></trkpt><trkpt lat="41.89306429432279" lon="2.7369669410311346"><ele>119.0</ele><time>2026-03-23T16:37:48.006Z</time></trkpt><trkpt lat="41.89300531360347" lon="2.7368914946907013"><ele>119.0</ele><time>2026-03-23T16:37:51.006Z</time></trkpt><trkpt lat="41.89294035698783" lon="2.7368282606464827"><ele>119.0</ele><time>2026-03-23T16:37:54.006Z</time></trkpt><trkpt lat="41.892872863529" lon="2.7367707848666587"><ele>118.99999999999999</ele><time>2026-03-23T16:37:57.006Z</time></trkpt><trkpt lat="41.892801187461174" lon="2.736716354326641"><ele>119.0</ele><time>2026-03-23T16:38:00.006Z</time></trkpt><trkpt lat="41.892728713420155" lon="2.7366747824291426"><ele>119.28571428571428</ele><time>2026-03-23T16:38:03.006Z</time></trkpt><trkpt lat="41.89265340842472" lon="2.7366361014523353"><ele>119.57142857142857</ele><time>2026-03-23T16:38:06.006Z</time></trkpt><trkpt lat="41.89258316403919" lon="2.7365829810523876"><ele>119.85714285714286</ele><time>2026-03-23T16:38:09.006Z</time></trkpt><trkpt lat="41.89251351518539" lon="2.7365341157034986"><ele>120.14285714285714</ele><time>2026-03-23T16:38:12.006Z</time></trkpt><trkpt lat="41.8924517853147" lon="2.736487978344676"><ele>120.42857142857142</ele><time>2026-03-23T16:38:15.006Z</time></trkpt><trkpt lat="41.89238998171275" lon="2.7364481746318754"><ele>120.71428571428571</ele><time>2026-03-23T16:38:18.006Z</time></trkpt><trkpt lat="41.89233212773598" lon="2.736406924261206"><ele>121.0</ele><time>2026-03-23T16:38:20.006Z</time></trkpt><trkpt lat="41.89226629408384" lon="2.736375655404649"><ele>121.00000000000001</ele><time>2026-03-23T16:38:23.006Z</time></trkpt><trkpt lat="41.8921880640194" lon="2.736331037928579"><ele>121.0</ele><time>2026-03-23T16:38:26.006Z</time></trkpt><trkpt lat="41.89210660074947" lon="2.736295843913723"><ele>121.0</ele><time>2026-03-23T16:38:29.006Z</time></trkpt><trkpt lat="41.89203705601188" lon="2.7362598066888086"><ele>121.0</ele><time>2026-03-23T16:38:32.006Z</time></trkpt><trkpt lat="41.891965041511995" lon="2.736214140693275"><ele>121.00000000000001</ele><time>2026-03-23T16:38:35.006Z</time></trkpt><trkpt lat="41.89189454823247" lon="2.736176499086691"><ele>121.0</ele><time>2026-03-23T16:38:38.006Z</time></trkpt><trkpt lat="41.89182278726868" lon="2.7361346989597495"><ele>121.0</ele><time>2026-03-23T16:38:41.006Z</time></trkpt><trkpt lat="41.8917607512123" lon="2.7360975542031247"><ele>120.99999999999999</ele><time>2026-03-23T16:38:44.006Z</time></trkpt><trkpt lat="41.89169996556965" lon="2.7360558630479788"><ele>121.0</ele><time>2026-03-23T16:38:47.006Z</time></trkpt><trkpt lat="41.89163445348867" lon="2.7360094622373525"><ele>121.0</ele><time>2026-03-23T16:38:50.006Z</time></trkpt><trkpt lat="41.891569193965495" lon="2.735954046095384"><ele>120.99999999999999</ele><time>2026-03-23T16:38:53.006Z</time></trkpt><trkpt lat="41.891513217691916" lon="2.735899921790362"><ele>121.0</ele><time>2026-03-23T16:38:56.006Z</time></trkpt><trkpt lat="41.89144937756304" lon="2.735835227129877"><ele>121.0</ele><time>2026-03-23T16:39:00.006Z</time></trkpt><trkpt lat="41.891377544683" lon="2.735767722116918"><ele>121.0</ele><time>2026-03-23T16:39:04.006Z</time></trkpt><trkpt lat="41.89131688041457" lon="2.735682064488154"><ele>120.99999999999999</ele><time>2026-03-23T16:39:08.006Z</time></trkpt><trkpt lat="41.89124154489615" lon="2.7356184842418663"><ele>121.0</ele><time>2026-03-23T16:39:11.006Z</time></trkpt><trkpt lat="41.89118370715498" lon="2.735556978233218"><ele>121.0</ele><time>2026-03-23T16:39:14.006Z</time></trkpt><trkpt lat="41.89112723726013" lon="2.7355138696708714"><ele>120.99999999999999</ele><time>2026-03-23T16:39:17.006Z</time></trkpt><trkpt lat="41.8910810153567" lon="2.73545387916192"><ele>121.0</ele><time>2026-03-23T16:39:20.006Z</time></trkpt><trkpt lat="41.89103418265511" lon="2.7353932855545966"><ele>121.0</ele><time>2026-03-23T16:39:23.006Z</time></trkpt><trkpt lat="41.890963930247565" lon="2.735360009399011"><ele>121.0</ele><time>2026-03-23T16:39:26.006Z</time></trkpt><trkpt lat="41.890897868066524" lon="2.7353433951035595"><ele>122.0</ele><time>2026-03-23T16:39:28.006Z</time></trkpt></trkseg></trk></gpx>